EWG4393 HEGN-LOWS
Flight info
| Callsign | EWG4393 |
|---|---|
| Flight time | N/A |
| Altitude | 36000 |
| Route | BOTIX1B BOTIX V608 NABED T55 KUNKI P751 METRU DCT OLGAT/N0447F380 DCT ABADI DCT CRAYE DCT GISAM DCT ORAKA DCT SPL DCT OKLAX DCT NUPSO DCT ALIVO DCT PENEP DCT RASTA RASTA2R |
| Aircraft | A319/M-SDE3FGHIRWY/LB1 |
Departure
| Time | 2026-05-05 12:19 |
|---|---|
| Airport | Hurghada International Airport (HEGN) |
Arrival
| Time | N/A |
|---|---|
| Airport | Salzburg Airport (LOWS) |
| Time | Latitude | Longitude | Altitude | Speed | Heading |
|---|---|---|---|---|---|
| 2026-05-05 11:45 | 27.19014 | 33.80370 | 53 ft | 0 kts | 76° |
| 2026-05-05 12:07 | 27.19009 | 33.80347 | 55 ft | 4 kts | 80° |
| 2026-05-05 12:07 | 27.19006 | 33.80317 | 52 ft | 4 kts | 93° |
| 2026-05-05 12:07 | 27.19011 | 33.80290 | 54 ft | 4 kts | 134° |
| 2026-05-05 12:07 | 27.19023 | 33.80281 | 52 ft | 1 kts | 165° |
| 2026-05-05 12:08 | 27.19025 | 33.80281 | 53 ft | 0 kts | 165° |
| 2026-05-05 12:10 | 27.19006 | 33.80286 | 51 ft | 5 kts | 165° |
| 2026-05-05 12:10 | 27.18964 | 33.80299 | 54 ft | 7 kts | 164° |
| 2026-05-05 12:10 | 27.18911 | 33.80316 | 56 ft | 9 kts | 169° |
| 2026-05-05 12:11 | 27.18836 | 33.80335 | 55 ft | 13 kts | 163° |
| 2026-05-05 12:11 | 27.18740 | 33.80365 | 56 ft | 16 kts | 165° |
| 2026-05-05 12:11 | 27.18635 | 33.80383 | 51 ft | 7 kts | 184° |
| 2026-05-05 12:11 | 27.18616 | 33.80338 | 58 ft | 8 kts | 256° |
| 2026-05-05 12:12 | 27.18602 | 33.80274 | 58 ft | 9 kts | 256° |
| 2026-05-05 12:12 | 27.18581 | 33.80200 | 54 ft | 11 kts | 256° |
| 2026-05-05 12:12 | 27.18558 | 33.80093 | 51 ft | 11 kts | 258° |
| 2026-05-05 12:12 | 27.18551 | 33.80055 | 50 ft | 2 kts | 261° |
| 2026-05-05 12:13 | 27.18550 | 33.80021 | 50 ft | 6 kts | 273° |
| 2026-05-05 12:13 | 27.18552 | 33.79965 | 51 ft | 8 kts | 271° |
| 2026-05-05 12:13 | 27.18526 | 33.79919 | 51 ft | 8 kts | 190° |
| 2026-05-05 12:13 | 27.18463 | 33.79940 | 49 ft | 11 kts | 139° |
| 2026-05-05 12:14 | 27.18466 | 33.80030 | 49 ft | 13 kts | 81° |
| 2026-05-05 12:14 | 27.18415 | 33.80103 | 50 ft | 13 kts | 161° |
| 2026-05-05 12:14 | 27.18326 | 33.80131 | 52 ft | 13 kts | 166° |
| 2026-05-05 12:14 | 27.18235 | 33.80158 | 52 ft | 14 kts | 165° |
| 2026-05-05 12:15 | 27.18138 | 33.80186 | 52 ft | 15 kts | 165° |
| 2026-05-05 12:15 | 27.18033 | 33.80219 | 54 ft | 16 kts | 165° |
| 2026-05-05 12:15 | 27.17918 | 33.80253 | 51 ft | 18 kts | 165° |
| 2026-05-05 12:15 | 27.17790 | 33.80290 | 54 ft | 20 kts | 165° |
| 2026-05-05 12:16 | 27.17657 | 33.80330 | 55 ft | 20 kts | 165° |
| 2026-05-05 12:16 | 27.17513 | 33.80374 | 51 ft | 23 kts | 165° |
| 2026-05-05 12:16 | 27.17351 | 33.80422 | 51 ft | 25 kts | 165° |
| 2026-05-05 12:16 | 27.17178 | 33.80473 | 50 ft | 27 kts | 165° |
| 2026-05-05 12:17 | 27.16993 | 33.80528 | 52 ft | 28 kts | 165° |
| 2026-05-05 12:17 | 27.16799 | 33.80584 | 47 ft | 30 kts | 165° |
| 2026-05-05 12:17 | 27.16589 | 33.80646 | 47 ft | 31 kts | 165° |
| 2026-05-05 12:17 | 27.16382 | 33.80707 | 45 ft | 30 kts | 165° |
| 2026-05-05 12:18 | 27.16188 | 33.80763 | 39 ft | 16 kts | 177° |
| 2026-05-05 12:18 | 27.16134 | 33.80665 | 40 ft | 15 kts | 253° |
| 2026-05-05 12:18 | 27.16192 | 33.80591 | 43 ft | 16 kts | 347° |
| 2026-05-05 12:18 | 27.16396 | 33.80530 | 45 ft | 54 kts | 345° |
| 2026-05-05 12:19 | 27.16939 | 33.80370 | 45 ft | 108 kts | 345° |
| 2026-05-05 12:19 | 27.17818 | 33.80108 | 66 ft | 152 kts | 343° |
| 2026-05-05 12:19 | 27.18831 | 33.79795 | 600 ft | 150 kts | 346° |
| 2026-05-05 12:19 | 27.19839 | 33.79468 | 1151 ft | 152 kts | 345° |
| 2026-05-05 12:20 | 27.20883 | 33.79127 | 1481 ft | 165 kts | 344° |
| 2026-05-05 12:20 | 27.22038 | 33.78744 | 1694 ft | 187 kts | 343° |
| 2026-05-05 12:20 | 27.23365 | 33.78303 | 1914 ft | 211 kts | 343° |
| 2026-05-05 12:20 | 27.24857 | 33.77809 | 2354 ft | 231 kts | 343° |
| 2026-05-05 12:21 | 27.26424 | 33.77294 | 3065 ft | 240 kts | 342° |
| 2026-05-05 12:21 | 27.28053 | 33.76760 | 3905 ft | 245 kts | 340° |
| 2026-05-05 12:21 | 27.29702 | 33.76221 | 4694 ft | 252 kts | 339° |
| 2026-05-05 12:21 | 27.31374 | 33.75543 | 5472 ft | 252 kts | 325° |
| 2026-05-05 12:22 | 27.32622 | 33.74179 | 6208 ft | 254 kts | 301° |
| 2026-05-05 12:22 | 27.33212 | 33.72309 | 6912 ft | 259 kts | 276° |
| 2026-05-05 12:22 | 27.33207 | 33.70286 | 7734 ft | 259 kts | 270° |
| 2026-05-05 12:22 | 27.33164 | 33.68264 | 8474 ft | 263 kts | 270° |
| 2026-05-05 12:23 | 27.33124 | 33.66194 | 9209 ft | 266 kts | 270° |
| 2026-05-05 12:23 | 27.33087 | 33.64093 | 9923 ft | 270 kts | 270° |
| 2026-05-05 12:23 | 27.33051 | 33.61936 | 10316 ft | 286 kts | 270° |
| 2026-05-05 12:23 | 27.33015 | 33.59617 | 10452 ft | 308 kts | 270° |
| 2026-05-05 12:24 | 27.32975 | 33.57122 | 10573 ft | 329 kts | 270° |
| 2026-05-05 12:24 | 27.32927 | 33.54504 | 10928 ft | 339 kts | 270° |
| 2026-05-05 12:24 | 27.32875 | 33.51834 | 11490 ft | 341 kts | 269° |
| 2026-05-05 12:24 | 27.32822 | 33.49167 | 12092 ft | 343 kts | 269° |
| 2026-05-05 12:25 | 27.32769 | 33.46472 | 12684 ft | 345 kts | 269° |
| 2026-05-05 12:25 | 27.32717 | 33.43756 | 13260 ft | 348 kts | 269° |
| 2026-05-05 12:25 | 27.32663 | 33.41028 | 13811 ft | 350 kts | 269° |
| 2026-05-05 12:25 | 27.32607 | 33.38281 | 14308 ft | 353 kts | 269° |
| 2026-05-05 12:26 | 27.32571 | 33.36454 | 14640 ft | 354 kts | 269° |
| 2026-05-05 12:26 | 27.32518 | 33.33678 | 15163 ft | 355 kts | 269° |
| 2026-05-05 12:26 | 27.32465 | 33.30890 | 15687 ft | 357 kts | 269° |
| 2026-05-05 12:26 | 27.32394 | 33.27170 | 16383 ft | 359 kts | 269° |
| 2026-05-05 12:27 | 27.32337 | 33.24338 | 16897 ft | 362 kts | 269° |
| 2026-05-05 12:27 | 27.32297 | 33.22460 | 17275 ft | 364 kts | 269° |
| 2026-05-05 12:27 | 27.32238 | 33.19610 | 17872 ft | 365 kts | 269° |
| 2026-05-05 12:27 | 27.32178 | 33.16744 | 18381 ft | 368 kts | 269° |
| 2026-05-05 12:28 | 27.32114 | 33.13857 | 18855 ft | 370 kts | 269° |
| 2026-05-05 12:28 | 27.32049 | 33.10959 | 19316 ft | 372 kts | 269° |
| 2026-05-05 12:28 | 27.31985 | 33.08044 | 19776 ft | 373 kts | 269° |
| 2026-05-05 12:28 | 27.31922 | 33.05117 | 20218 ft | 375 kts | 269° |
| 2026-05-05 12:29 | 27.31858 | 33.02179 | 20652 ft | 377 kts | 269° |
| 2026-05-05 12:29 | 27.31790 | 32.99218 | 21073 ft | 379 kts | 269° |
| 2026-05-05 12:29 | 27.31720 | 32.96247 | 21493 ft | 381 kts | 269° |
| 2026-05-05 12:29 | 27.31653 | 32.93261 | 21915 ft | 383 kts | 269° |
| 2026-05-05 12:30 | 27.31585 | 32.90262 | 22309 ft | 384 kts | 269° |
| 2026-05-05 12:30 | 27.31518 | 32.87288 | 22698 ft | 386 kts | 269° |
| 2026-05-05 12:30 | 27.31447 | 32.84260 | 23066 ft | 389 kts | 269° |
| 2026-05-05 12:30 | 27.31375 | 32.81213 | 23438 ft | 391 kts | 269° |
| 2026-05-05 12:31 | 27.31300 | 32.78150 | 23766 ft | 393 kts | 268° |
| 2026-05-05 12:31 | 27.31226 | 32.75070 | 24076 ft | 394 kts | 268° |
| 2026-05-05 12:31 | 27.31154 | 32.71987 | 24401 ft | 395 kts | 268° |
| 2026-05-05 12:31 | 27.31082 | 32.68891 | 24727 ft | 397 kts | 268° |
| 2026-05-05 12:32 | 27.31009 | 32.65786 | 25025 ft | 398 kts | 268° |
| 2026-05-05 12:32 | 27.30932 | 32.62661 | 25308 ft | 400 kts | 268° |
| 2026-05-05 12:32 | 27.30852 | 32.59531 | 25621 ft | 402 kts | 268° |
| 2026-05-05 12:32 | 27.30770 | 32.56384 | 25928 ft | 403 kts | 268° |
| 2026-05-05 12:33 | 27.30685 | 32.53235 | 26228 ft | 404 kts | 268° |
| 2026-05-05 12:33 | 27.30601 | 32.50077 | 26522 ft | 405 kts | 268° |
| 2026-05-05 12:33 | 27.30518 | 32.46901 | 26784 ft | 407 kts | 268° |
| 2026-05-05 12:33 | 27.30435 | 32.43715 | 27064 ft | 408 kts | 268° |
| 2026-05-05 12:34 | 27.30350 | 32.40519 | 27341 ft | 409 kts | 268° |
| 2026-05-05 12:34 | 27.30263 | 32.37320 | 27623 ft | 411 kts | 268° |
| 2026-05-05 12:34 | 27.30186 | 32.34096 | 27874 ft | 412 kts | 270° |
| 2026-05-05 12:34 | 27.30455 | 32.30888 | 28128 ft | 415 kts | 279° |
| 2026-05-05 12:35 | 27.31274 | 32.27755 | 28385 ft | 420 kts | 289° |
| 2026-05-05 12:35 | 27.32626 | 32.24818 | 28631 ft | 427 kts | 299° |
| 2026-05-05 12:35 | 27.34406 | 32.22126 | 28949 ft | 429 kts | 303° |
| 2026-05-05 12:35 | 27.36226 | 32.19479 | 29321 ft | 428 kts | 303° |
| 2026-05-05 12:36 | 27.38040 | 32.16831 | 29709 ft | 426 kts | 303° |
| 2026-05-05 12:36 | 27.39849 | 32.14187 | 30084 ft | 425 kts | 303° |
| 2026-05-05 12:36 | 27.41652 | 32.11554 | 30412 ft | 424 kts | 302° |
| 2026-05-05 12:36 | 27.43447 | 32.08929 | 30723 ft | 423 kts | 302° |
| 2026-05-05 12:37 | 27.45241 | 32.06303 | 31059 ft | 422 kts | 302° |
| 2026-05-05 12:37 | 27.47032 | 32.03684 | 31378 ft | 421 kts | 302° |
| 2026-05-05 12:37 | 27.48812 | 32.01080 | 31766 ft | 419 kts | 302° |
| 2026-05-05 12:37 | 27.50562 | 31.98516 | 32118 ft | 417 kts | 302° |
| 2026-05-05 12:38 | 27.52323 | 31.95932 | 32458 ft | 416 kts | 302° |
| 2026-05-05 12:38 | 27.54085 | 31.93347 | 32775 ft | 415 kts | 302° |
| 2026-05-05 12:38 | 27.55840 | 31.90773 | 33096 ft | 414 kts | 302° |
| 2026-05-05 12:38 | 27.57590 | 31.88200 | 33403 ft | 413 kts | 302° |
| 2026-05-05 12:39 | 27.59339 | 31.85626 | 33715 ft | 412 kts | 302° |
| 2026-05-05 12:39 | 27.61078 | 31.83067 | 34050 ft | 411 kts | 302° |
| 2026-05-05 12:39 | 27.62816 | 31.80506 | 34332 ft | 411 kts | 302° |
| 2026-05-05 12:39 | 27.64553 | 31.77946 | 34624 ft | 410 kts | 302° |
| 2026-05-05 12:40 | 27.66280 | 31.75399 | 34902 ft | 409 kts | 302° |
| 2026-05-05 12:40 | 27.68011 | 31.72848 | 35061 ft | 409 kts | 302° |
| 2026-05-05 12:40 | 27.71468 | 31.67760 | 35094 ft | 408 kts | 302° |
| 2026-05-05 12:41 | 27.74919 | 31.62669 | 35102 ft | 408 kts | 302° |
| 2026-05-05 12:41 | 27.78362 | 31.57580 | 35100 ft | 408 kts | 302° |
| 2026-05-05 12:42 | 27.81781 | 31.52517 | 35103 ft | 408 kts | 302° |
| 2026-05-05 12:42 | 27.85220 | 31.47420 | 35105 ft | 407 kts | 302° |
| 2026-05-05 12:43 | 27.88650 | 31.42318 | 35121 ft | 407 kts | 302° |
| 2026-05-05 12:43 | 27.92064 | 31.37235 | 35105 ft | 405 kts | 302° |
| 2026-05-05 12:44 | 27.95482 | 31.32163 | 35111 ft | 405 kts | 302° |
| 2026-05-05 12:44 | 27.98896 | 31.27084 | 35115 ft | 405 kts | 302° |
| 2026-05-05 12:45 | 28.02295 | 31.22036 | 35115 ft | 405 kts | 302° |
| 2026-05-05 12:45 | 28.05702 | 31.16947 | 35115 ft | 405 kts | 302° |
| 2026-05-05 12:46 | 28.09026 | 31.11800 | 35116 ft | 403 kts | 300° |
| 2026-05-05 12:46 | 28.12124 | 31.06516 | 35118 ft | 402 kts | 298° |
| 2026-05-05 12:47 | 28.15172 | 31.01193 | 35117 ft | 403 kts | 298° |
| 2026-05-05 12:47 | 28.18269 | 30.95891 | 35119 ft | 403 kts | 299° |
| 2026-05-05 12:48 | 28.21369 | 30.90635 | 35112 ft | 404 kts | 299° |
| 2026-05-05 12:48 | 28.24490 | 30.85335 | 35114 ft | 404 kts | 299° |
| 2026-05-05 12:49 | 28.27613 | 30.80037 | 35115 ft | 404 kts | 299° |
| 2026-05-05 12:49 | 28.30729 | 30.74729 | 35138 ft | 403 kts | 299° |
| 2026-05-05 12:50 | 28.33828 | 30.69425 | 35117 ft | 402 kts | 299° |
| 2026-05-05 12:50 | 28.36915 | 30.64136 | 35117 ft | 402 kts | 299° |
| 2026-05-05 12:51 | 28.39988 | 30.58879 | 35115 ft | 402 kts | 299° |
| 2026-05-05 12:51 | 28.43084 | 30.53588 | 35114 ft | 402 kts | 299° |
| 2026-05-05 12:52 | 28.46173 | 30.48291 | 35115 ft | 402 kts | 299° |
| 2026-05-05 12:52 | 28.49257 | 30.42990 | 35114 ft | 402 kts | 299° |
| 2026-05-05 12:53 | 28.52342 | 30.37682 | 35114 ft | 402 kts | 299° |
| 2026-05-05 12:53 | 28.55424 | 30.32375 | 35115 ft | 402 kts | 299° |
| 2026-05-05 12:54 | 28.60024 | 30.24449 | 35111 ft | 402 kts | 299° |
| 2026-05-05 12:55 | 28.63098 | 30.19136 | 35112 ft | 402 kts | 299° |
| 2026-05-05 12:55 | 28.66170 | 30.13823 | 35106 ft | 402 kts | 299° |
| 2026-05-05 12:56 | 28.69237 | 30.08507 | 35109 ft | 402 kts | 299° |
| 2026-05-05 12:56 | 28.72303 | 30.03181 | 35108 ft | 402 kts | 299° |
| 2026-05-05 12:57 | 28.75372 | 29.97850 | 35126 ft | 402 kts | 299° |
| 2026-05-05 12:57 | 28.78434 | 29.92526 | 35104 ft | 401 kts | 299° |
| 2026-05-05 12:58 | 28.81489 | 29.87212 | 35107 ft | 401 kts | 299° |
| 2026-05-05 12:58 | 28.84550 | 29.81881 | 35099 ft | 401 kts | 299° |
| 2026-05-05 12:59 | 28.87586 | 29.76584 | 35098 ft | 402 kts | 299° |
| 2026-05-05 12:59 | 28.90644 | 29.71236 | 35098 ft | 402 kts | 299° |
| 2026-05-05 13:00 | 28.95226 | 29.63220 | 35101 ft | 402 kts | 299° |
| 2026-05-05 13:01 | 29.01318 | 29.52526 | 35100 ft | 402 kts | 299° |
| 2026-05-05 13:01 | 29.04370 | 29.47169 | 35094 ft | 402 kts | 299° |
| 2026-05-05 13:02 | 29.07396 | 29.41847 | 35095 ft | 402 kts | 299° |
| 2026-05-05 13:02 | 29.10435 | 29.36484 | 35097 ft | 402 kts | 299° |
| 2026-05-05 13:03 | 29.14065 | 29.31592 | 35095 ft | 412 kts | 315° |
| 2026-05-05 13:03 | 29.18662 | 29.27610 | 35102 ft | 414 kts | 317° |
| 2026-05-05 13:04 | 29.23249 | 29.23638 | 35102 ft | 413 kts | 317° |
| 2026-05-05 13:04 | 29.27834 | 29.19662 | 35102 ft | 414 kts | 317° |
| 2026-05-05 13:05 | 29.32420 | 29.15677 | 35099 ft | 414 kts | 317° |
| 2026-05-05 13:05 | 29.36980 | 29.11707 | 35104 ft | 414 kts | 317° |
| 2026-05-05 13:06 | 29.41566 | 29.07716 | 35108 ft | 414 kts | 317° |
| 2026-05-05 13:06 | 29.46152 | 29.03720 | 35108 ft | 414 kts | 317° |
| 2026-05-05 13:07 | 29.50717 | 28.99731 | 35110 ft | 413 kts | 317° |
| 2026-05-05 13:07 | 29.55280 | 28.95735 | 35103 ft | 413 kts | 317° |
| 2026-05-05 13:08 | 29.59838 | 28.91730 | 35102 ft | 412 kts | 317° |
| 2026-05-05 13:08 | 29.64388 | 28.87724 | 35102 ft | 412 kts | 317° |
| 2026-05-05 13:09 | 29.68948 | 28.83724 | 35103 ft | 412 kts | 317° |
| 2026-05-05 13:09 | 29.73503 | 28.79728 | 35105 ft | 412 kts | 317° |
| 2026-05-05 13:10 | 29.78059 | 28.75720 | 35099 ft | 412 kts | 317° |
| 2026-05-05 13:10 | 29.82605 | 28.71707 | 35107 ft | 410 kts | 317° |
| 2026-05-05 13:11 | 29.87125 | 28.67709 | 35097 ft | 409 kts | 317° |
| 2026-05-05 13:11 | 29.91621 | 28.63731 | 35100 ft | 410 kts | 317° |
| 2026-05-05 13:12 | 29.96150 | 28.59720 | 35100 ft | 410 kts | 317° |
| 2026-05-05 13:12 | 30.00681 | 28.55713 | 35100 ft | 410 kts | 317° |
| 2026-05-05 13:13 | 30.05204 | 28.51706 | 35100 ft | 410 kts | 317° |
| 2026-05-05 13:13 | 30.09731 | 28.47692 | 35106 ft | 410 kts | 317° |
| 2026-05-05 13:14 | 30.14252 | 28.43672 | 35105 ft | 410 kts | 317° |
| 2026-05-05 13:14 | 30.18767 | 28.39650 | 35106 ft | 410 kts | 317° |
| 2026-05-05 13:15 | 30.22528 | 28.36292 | 35109 ft | 410 kts | 317° |
| 2026-05-05 13:15 | 30.25519 | 28.33621 | 35108 ft | 410 kts | 317° |